createdAt,value
2023-10-26T00:02:10.368Z,9.27
2023-10-26T00:04:56.874Z,9.25
2023-10-26T00:07:43.433Z,9.24
2023-10-26T00:10:29.951Z,9.23
2023-10-26T00:13:16.826Z,9.24
2023-10-26T00:16:04.593Z,9.24
2023-10-26T00:18:51.375Z,9.22
2023-10-26T00:21:37.924Z,9.20
2023-10-26T00:24:24.349Z,9.19
2023-10-26T00:27:11.026Z,9.16
2023-10-26T00:29:57.777Z,9.18
2023-10-26T00:32:44.462Z,9.16
2023-10-26T00:35:31.207Z,9.13
2023-10-26T00:38:17.773Z,9.12
2023-10-26T00:41:04.766Z,9.12
2023-10-26T00:43:51.356Z,9.10
2023-10-26T00:46:37.925Z,9.10
2023-10-26T00:49:24.493Z,9.10
2023-10-26T00:52:11.945Z,9.10
2023-10-26T00:54:58.958Z,9.07
2023-10-26T00:57:45.905Z,9.05
2023-10-26T01:00:35.876Z,9.03
2023-10-26T01:03:24.743Z,9.02
2023-10-26T01:06:11.374Z,9.03
2023-10-26T01:08:58.137Z,9.00
2023-10-26T01:11:45.794Z,9.04
2023-10-26T01:14:32.933Z,9.04
2023-10-26T01:17:19.703Z,9.02
2023-10-26T01:20:07.661Z,9.00
2023-10-26T01:22:53.900Z,9.02
2023-10-26T01:25:40.905Z,9.01
2023-10-26T01:28:27.766Z,9.01
2023-10-26T01:31:18.046Z,8.97
2023-10-26T01:34:05.052Z,8.91
2023-10-26T01:36:52.025Z,8.93
2023-10-26T01:39:39.873Z,8.92
2023-10-26T01:42:26.333Z,8.88
2023-10-26T01:45:12.907Z,8.82
2023-10-26T01:48:01.357Z,8.77
2023-10-26T01:50:47.594Z,8.76
2023-10-26T01:53:34.271Z,8.80
2023-10-26T01:56:21.032Z,8.81
2023-10-26T01:59:08.082Z,8.83
2023-10-26T02:01:54.607Z,8.83
2023-10-26T02:04:41.250Z,8.83
2023-10-26T02:07:27.637Z,8.83
2023-10-26T02:10:15.920Z,8.85
2023-10-26T02:13:02.381Z,8.87
2023-10-26T02:15:49.295Z,8.89
2023-10-26T02:18:36.118Z,8.90
2023-10-26T02:21:22.548Z,8.89
2023-10-26T02:24:09.651Z,8.90
2023-10-26T02:26:55.998Z,8.91
2023-10-26T02:29:42.312Z,8.93
2023-10-26T02:32:29.003Z,8.94
2023-10-26T02:35:16.510Z,8.96
2023-10-26T02:38:03.603Z,8.96
2023-10-26T02:40:50.150Z,8.95
2023-10-26T02:43:36.892Z,8.95
2023-10-26T02:46:24.884Z,8.96
2023-10-26T02:49:11.351Z,8.93
2023-10-26T02:51:58.751Z,8.87
2023-10-26T02:54:46.784Z,8.95
2023-10-26T02:57:33.644Z,8.96
2023-10-26T03:00:20.752Z,8.91
2023-10-26T03:03:07.576Z,8.96
2023-10-26T03:05:54.915Z,8.97
2023-10-26T03:08:41.320Z,8.97
2023-10-26T03:11:28.797Z,8.97
2023-10-26T03:14:16.104Z,8.98
2023-10-26T03:17:03.298Z,9.00
2023-10-26T03:19:49.780Z,9.02
2023-10-26T03:22:36.173Z,9.00
2023-10-26T03:25:22.865Z,9.00
2023-10-26T03:28:10.452Z,8.99
2023-10-26T03:30:57.779Z,8.99
2023-10-26T03:33:44.946Z,8.97
2023-10-26T03:36:31.738Z,9.00
2023-10-26T03:39:18.384Z,9.00
2023-10-26T03:42:05.334Z,9.01
2023-10-26T03:44:51.891Z,8.97
2023-10-26T03:47:38.226Z,8.96
2023-10-26T03:50:25.024Z,8.95
2023-10-26T03:53:11.506Z,8.94
2023-10-26T03:55:58.026Z,8.95
2023-10-26T03:58:44.399Z,8.94
2023-10-26T04:01:31.011Z,8.92
2023-10-26T04:04:17.646Z,8.91
2023-10-26T04:07:04.376Z,8.90
2023-10-26T04:09:50.539Z,8.89
2023-10-26T04:12:37.162Z,8.89
2023-10-26T04:15:23.952Z,8.89
2023-10-26T04:18:10.928Z,8.88
2023-10-26T04:20:57.971Z,8.86
2023-10-26T04:23:45.064Z,8.85
2023-10-26T04:26:32.044Z,8.85
2023-10-26T04:29:18.350Z,8.85
2023-10-26T04:32:05.754Z,8.84
2023-10-26T04:34:52.257Z,8.85
2023-10-26T04:37:38.886Z,8.84
2023-10-26T04:40:25.489Z,8.80
2023-10-26T04:43:12.059Z,8.78
2023-10-26T04:45:58.535Z,8.81
2023-10-26T04:48:45.657Z,8.84
2023-10-26T04:51:33.601Z,8.88
2023-10-26T04:54:20.490Z,8.89
2023-10-26T04:57:07.043Z,8.89
2023-10-26T04:59:53.968Z,8.89
2023-10-26T05:02:42.123Z,8.90
2023-10-26T05:05:28.868Z,8.91
2023-10-26T05:08:15.298Z,8.90
2023-10-26T05:11:01.993Z,8.88
2023-10-26T05:13:50.143Z,8.90
2023-10-26T05:16:38.079Z,8.91
2023-10-26T05:19:24.750Z,8.94
2023-10-26T05:22:11.293Z,8.96
2023-10-26T05:24:57.543Z,8.94
2023-10-26T05:27:44.692Z,8.94
2023-10-26T05:30:31.487Z,8.94
2023-10-26T05:33:17.837Z,8.91
2023-10-26T05:36:05.407Z,8.92
2023-10-26T05:38:51.655Z,8.91
2023-10-26T05:41:38.251Z,8.92
2023-10-26T05:44:24.871Z,8.91
2023-10-26T05:47:11.627Z,8.88
2023-10-26T05:49:58.034Z,8.90
2023-10-26T05:52:44.568Z,8.91
2023-10-26T05:55:31.249Z,8.92
2023-10-26T05:58:17.879Z,8.94
2023-10-26T06:01:05.751Z,8.96
2023-10-26T06:03:52.214Z,8.98
2023-10-26T06:06:38.985Z,8.99
2023-10-26T06:09:25.762Z,8.97
2023-10-26T06:12:13.494Z,9.04
2023-10-26T06:15:00.101Z,9.06
2023-10-26T06:17:46.915Z,9.09
2023-10-26T06:20:33.440Z,9.17
2023-10-26T06:23:19.816Z,9.21
2023-10-26T06:26:06.920Z,9.23
2023-10-26T06:28:54.460Z,9.26
2023-10-26T06:31:41.135Z,9.33
2023-10-26T06:34:27.913Z,9.37
2023-10-26T06:37:14.449Z,9.40
2023-10-26T06:40:00.882Z,9.44
2023-10-26T06:42:47.416Z,9.49
2023-10-26T06:45:34.651Z,9.53
2023-10-26T06:48:21.233Z,9.56
2023-10-26T06:51:08.113Z,9.60
2023-10-26T06:53:54.939Z,9.59
2023-10-26T06:56:41.631Z,9.65
2023-10-26T06:59:28.381Z,9.66
2023-10-26T07:02:14.975Z,9.64
2023-10-26T07:05:03.563Z,9.65
2023-10-26T07:07:50.188Z,9.70
2023-10-26T07:10:39.984Z,9.71
2023-10-26T07:13:29.295Z,9.70
2023-10-26T07:16:16.142Z,9.72
2023-10-26T07:19:02.620Z,9.76
2023-10-26T07:21:49.094Z,9.75
2023-10-26T07:24:36.435Z,9.79
2023-10-26T07:27:22.977Z,9.78
2023-10-26T07:30:10.639Z,9.80
2023-10-26T07:32:57.094Z,9.80
2023-10-26T07:35:51.776Z,9.76
2023-10-26T07:38:38.283Z,9.75
2023-10-26T07:42:07.053Z,9.78
2023-10-26T07:44:35.001Z,9.82
2023-10-26T07:47:22.913Z,9.84
2023-10-26T07:50:09.724Z,9.84
2023-10-26T07:52:56.192Z,9.83
2023-10-26T07:55:42.904Z,9.85
2023-10-26T07:58:31.183Z,9.84
2023-10-26T08:01:18.005Z,9.80
2023-10-26T08:04:04.898Z,9.83
2023-10-26T08:06:51.713Z,9.82
2023-10-26T08:09:38.371Z,9.84
2023-10-26T08:12:25.004Z,9.84
2023-10-26T08:16:10.602Z,9.87
2023-10-26T08:18:18.231Z,9.92
2023-10-26T08:21:06.639Z,9.95
2023-10-26T08:23:53.116Z,9.96
2023-10-26T08:26:39.730Z,9.98
2023-10-26T08:29:28.992Z,10.01
2023-10-26T08:32:16.513Z,10.00
2023-10-26T08:35:04.569Z,9.97
2023-10-26T08:37:51.357Z,9.91
2023-10-26T08:40:38.582Z,9.88
2023-10-26T08:43:25.466Z,9.85
2023-10-26T08:46:17.727Z,9.83
2023-10-26T08:49:07.842Z,9.84
2023-10-26T08:51:55.068Z,9.88
2023-10-26T08:54:41.665Z,9.89
2023-10-26T08:57:28.493Z,9.90
2023-10-26T09:00:16.562Z,9.95
2023-10-26T09:03:04.334Z,10.02
2023-10-26T09:05:55.644Z,10.10
2023-10-26T09:08:42.801Z,10.11
2023-10-26T09:11:29.520Z,10.12
2023-10-26T09:14:20.300Z,10.10
2023-10-26T09:17:06.871Z,10.08
2023-10-26T09:19:53.493Z,10.08
2023-10-26T09:22:41.624Z,10.08
2023-10-26T09:25:29.570Z,10.06
2023-10-26T09:28:16.582Z,10.06
2023-10-26T09:31:06.022Z,10.05
2023-10-26T09:33:52.813Z,10.05
2023-10-26T09:36:39.567Z,10.14
2023-10-26T09:39:30.909Z,10.19
2023-10-26T09:42:17.724Z,10.24
2023-10-26T09:45:04.746Z,10.23
2023-10-26T09:47:51.240Z,10.30
2023-10-26T09:50:41.584Z,10.30
2023-10-26T09:53:33.661Z,10.33
2023-10-26T09:56:26.196Z,10.33
2023-10-26T09:59:14.008Z,10.32
2023-10-26T10:02:14.126Z,10.34
2023-10-26T10:05:01.199Z,10.33
2023-10-26T10:07:47.763Z,10.34
2023-10-26T10:10:35.522Z,10.33
2023-10-26T10:13:38.329Z,10.34
2023-10-26T10:16:37.238Z,10.36
2023-10-26T10:19:27.375Z,10.37
2023-10-26T10:22:37.997Z,10.37
2023-10-26T10:25:50.137Z,10.34
2023-10-26T10:28:42.063Z,10.33
2023-10-26T10:31:39.078Z,10.36
2023-10-26T10:34:34.939Z,10.37
2023-10-26T10:37:25.087Z,10.39
2023-10-26T10:40:16.154Z,10.40
2023-10-26T10:43:02.456Z,10.40
2023-10-26T10:45:49.433Z,10.40
2023-10-26T10:48:37.209Z,10.42
2023-10-26T10:51:30.712Z,10.46
2023-10-26T10:54:34.875Z,10.50
2023-10-26T10:57:30.917Z,10.54
2023-10-26T11:00:17.454Z,10.55
2023-10-26T11:03:04.380Z,10.55
2023-10-26T11:05:53.197Z,10.52
2023-10-26T11:08:39.950Z,10.59
2023-10-26T11:11:27.850Z,10.59
2023-10-26T11:14:14.240Z,10.60
2023-10-26T11:17:01.404Z,10.60
2023-10-26T11:19:48.875Z,10.57
2023-10-26T11:22:35.604Z,10.60
2023-10-26T11:25:28.531Z,10.64
2023-10-26T11:28:15.143Z,10.69
2023-10-26T11:31:02.107Z,10.72
2023-10-26T11:33:48.906Z,10.74
2023-10-26T11:36:39.023Z,10.81
2023-10-26T11:39:26.268Z,10.84
2023-10-26T11:42:13.065Z,10.87
2023-10-26T11:44:59.810Z,10.88
2023-10-26T11:47:55.522Z,10.88
2023-10-26T11:50:42.143Z,10.89
2023-10-26T11:53:30.307Z,10.92
2023-10-26T11:56:16.922Z,10.99
2023-10-26T11:59:03.184Z,11.03
2023-10-26T12:01:49.762Z,11.08
2023-10-26T12:04:36.342Z,11.10
2023-10-26T12:07:23.114Z,11.16
2023-10-26T12:10:10.370Z,11.22
2023-10-26T12:13:00.223Z,11.30
2023-10-26T12:15:46.588Z,11.39
2023-10-26T12:18:36.332Z,11.42
2023-10-26T12:21:22.901Z,11.41
2023-10-26T12:24:09.723Z,11.36
2023-10-26T12:26:57.317Z,11.30
2023-10-26T12:29:44.773Z,11.27
2023-10-26T12:32:32.214Z,11.27
2023-10-26T12:35:18.688Z,11.26
2023-10-26T12:38:05.097Z,11.22
2023-10-26T12:40:51.556Z,11.19
2023-10-26T12:43:38.035Z,11.14
2023-10-26T12:46:24.502Z,11.08
2023-10-26T12:49:11.091Z,11.01
2023-10-26T12:51:57.703Z,10.98
2023-10-26T12:54:44.487Z,10.94
2023-10-26T12:57:31.577Z,10.89
2023-10-26T13:00:18.174Z,10.85
2023-10-26T13:03:04.922Z,10.85
2023-10-26T13:05:52.959Z,10.86
2023-10-26T13:08:40.444Z,10.86
2023-10-26T13:11:27.073Z,10.83
2023-10-26T13:14:13.771Z,10.80
2023-10-26T13:17:00.274Z,10.77
2023-10-26T13:19:47.143Z,10.75
2023-10-26T13:22:33.865Z,10.69
2023-10-26T13:25:20.467Z,10.72
2023-10-26T13:28:06.950Z,10.65
2023-10-26T13:30:54.225Z,10.59
2023-10-26T13:33:41.898Z,10.56
2023-10-26T13:36:28.313Z,10.50
2023-10-26T13:39:16.042Z,10.47
2023-10-26T13:42:02.681Z,10.44
2023-10-26T13:44:49.891Z,10.41
2023-10-26T13:47:36.962Z,10.39
2023-10-26T13:50:23.744Z,10.35
2023-10-26T13:53:10.213Z,10.27
2023-10-26T13:55:56.816Z,10.24
2023-10-26T13:58:43.409Z,10.26
2023-10-26T14:01:30.180Z,10.21
2023-10-26T14:04:17.103Z,10.14
2023-10-26T14:07:05.413Z,10.07
2023-10-26T14:09:53.407Z,10.00
2023-10-26T14:12:39.674Z,10.02
2023-10-26T14:15:26.602Z,10.02
2023-10-26T14:18:13.232Z,10.01
2023-10-26T14:20:59.807Z,9.96
2023-10-26T14:23:46.542Z,9.93
2023-10-26T14:26:33.042Z,9.90
2023-10-26T14:29:19.280Z,9.87
2023-10-26T14:32:05.944Z,9.82
2023-10-26T14:34:52.551Z,9.79
2023-10-26T14:37:39.219Z,9.75
2023-10-26T14:40:26.743Z,9.68
2023-10-26T14:43:16.659Z,9.63
2023-10-26T14:46:03.272Z,9.64
2023-10-26T14:48:50.039Z,9.63
2023-10-26T14:51:36.979Z,9.63
2023-10-26T14:54:25.338Z,9.62
2023-10-26T14:57:11.906Z,9.61
2023-10-26T14:59:58.382Z,9.61
2023-10-26T15:02:45.577Z,9.59
2023-10-26T15:05:35.699Z,9.56
2023-10-26T15:08:22.552Z,9.56
2023-10-26T15:11:22.995Z,9.53
2023-10-26T15:14:11.852Z,9.43
2023-10-26T15:16:58.125Z,9.45
2023-10-26T15:19:44.710Z,9.46
2023-10-26T15:22:31.618Z,9.48
2023-10-26T15:25:18.239Z,9.47
2023-10-26T15:28:05.203Z,9.44
2023-10-26T15:30:52.218Z,9.42
2023-10-26T15:33:39.248Z,9.40
2023-10-26T15:36:26.450Z,9.38
2023-10-26T15:39:14.697Z,9.37
2023-10-26T15:42:00.995Z,9.37
2023-10-26T15:44:53.095Z,9.36
2023-10-26T15:47:40.692Z,9.34
2023-10-26T15:50:29.759Z,9.36
2023-10-26T15:53:16.278Z,9.36
2023-10-26T15:56:04.056Z,9.34
2023-10-26T15:58:53.582Z,9.40
2023-10-26T16:01:40.171Z,9.38
2023-10-26T16:04:29.534Z,9.36
2023-10-26T16:07:15.997Z,9.35
2023-10-26T16:10:45.040Z,9.31
2023-10-26T16:13:57.172Z,9.32
2023-10-26T16:16:43.576Z,9.32
2023-10-26T16:19:30.584Z,9.32
2023-10-26T16:22:18.289Z,9.33
2023-10-26T16:25:05.677Z,9.35
2023-10-26T16:27:52.409Z,9.37
2023-10-26T16:30:41.040Z,9.38
2023-10-26T16:33:28.425Z,9.37
2023-10-26T16:36:14.762Z,9.29
2023-10-26T16:39:00.926Z,9.34
2023-10-26T16:41:47.748Z,9.38
2023-10-26T16:44:34.396Z,9.36
2023-10-26T16:47:21.547Z,9.33
2023-10-26T16:50:08.537Z,9.31
2023-10-26T16:52:55.115Z,9.31
2023-10-26T16:55:41.432Z,9.29
2023-10-26T16:58:28.732Z,9.30
2023-10-26T17:01:15.590Z,9.30
2023-10-26T17:04:02.200Z,9.28
2023-10-26T17:06:49.135Z,9.31
2023-10-26T17:09:35.785Z,9.30
2023-10-26T17:12:22.501Z,9.30
2023-10-26T17:15:10.946Z,9.31
2023-10-26T17:17:57.331Z,9.31
2023-10-26T17:20:43.939Z,9.31
2023-10-26T17:23:30.488Z,9.31
2023-10-26T17:26:17.234Z,9.32
2023-10-26T17:29:04.068Z,9.31
2023-10-26T17:31:50.823Z,9.31
2023-10-26T17:34:37.359Z,9.31
2023-10-26T17:37:24.307Z,9.32
2023-10-26T17:40:12.967Z,9.30
2023-10-26T17:42:59.630Z,9.29
2023-10-26T17:45:55.918Z,9.30
2023-10-26T17:48:42.472Z,9.30
2023-10-26T17:51:30.571Z,9.32
2023-10-26T17:54:17.022Z,9.31
2023-10-26T17:57:04.360Z,9.25
2023-10-26T17:59:50.922Z,9.28
2023-10-26T18:02:38.222Z,9.23
2023-10-26T18:05:24.927Z,9.30
2023-10-26T18:08:11.719Z,9.32
2023-10-26T18:10:59.551Z,9.32
2023-10-26T18:13:46.037Z,9.31
2023-10-26T18:16:32.884Z,9.27
2023-10-26T18:19:19.256Z,9.24
2023-10-26T18:22:05.851Z,9.21
2023-10-26T18:24:55.728Z,9.19
2023-10-26T18:27:42.499Z,9.19
2023-10-26T18:30:29.178Z,9.18
2023-10-26T18:33:15.584Z,9.18
2023-10-26T18:36:04.489Z,9.18
2023-10-26T18:38:51.211Z,9.17
2023-10-26T18:41:38.327Z,9.16
2023-10-26T18:44:25.842Z,9.15
2023-10-26T18:47:12.800Z,9.19
2023-10-26T18:49:59.829Z,9.19
2023-10-26T18:52:47.050Z,9.19
2023-10-26T18:55:36.668Z,9.18
2023-10-26T18:58:24.720Z,9.18
2023-10-26T19:01:11.954Z,9.18
2023-10-26T19:04:02.620Z,9.14
2023-10-26T19:06:52.167Z,9.10
2023-10-26T19:09:39.026Z,9.07
2023-10-26T19:12:25.899Z,9.05
2023-10-26T19:15:12.813Z,9.09
2023-10-26T19:18:00.364Z,9.07
2023-10-26T19:20:46.873Z,9.05
2023-10-26T19:23:33.511Z,9.01
2023-10-26T19:26:20.533Z,8.98
2023-10-26T19:29:07.103Z,8.96
2023-10-26T19:31:53.988Z,8.96
2023-10-26T19:34:40.805Z,8.96
2023-10-26T19:37:27.764Z,8.97
2023-10-26T19:40:14.630Z,8.98
2023-10-26T19:43:01.444Z,8.95
2023-10-26T19:45:48.264Z,8.97
2023-10-26T19:48:34.848Z,8.93
2023-10-26T19:51:21.457Z,8.90
2023-10-26T19:54:08.131Z,8.86
2023-10-26T19:56:55.647Z,8.83
2023-10-26T19:59:46.862Z,8.80
2023-10-26T20:02:33.390Z,8.77
2023-10-26T20:05:20.098Z,8.77
2023-10-26T20:08:06.788Z,8.80
2023-10-26T20:11:03.241Z,8.81
2023-10-26T20:13:55.519Z,8.83
2023-10-26T20:16:41.907Z,8.87
2023-10-26T20:19:28.960Z,8.92
2023-10-26T20:22:16.292Z,8.95
2023-10-26T20:25:05.345Z,8.95
2023-10-26T20:27:52.123Z,8.96
2023-10-26T20:30:38.890Z,8.96
2023-10-26T20:33:25.431Z,8.93
2023-10-26T20:36:12.339Z,8.90
2023-10-26T20:38:59.269Z,8.86
2023-10-26T20:41:45.867Z,8.85
2023-10-26T20:44:32.117Z,8.80
2023-10-26T20:47:18.436Z,8.76
2023-10-26T20:50:06.372Z,8.68
2023-10-26T20:52:52.773Z,8.78
2023-10-26T20:55:39.771Z,8.80
2023-10-26T20:58:26.929Z,8.80
2023-10-26T21:01:14.773Z,8.79
2023-10-26T21:04:01.291Z,8.72
2023-10-26T21:06:48.087Z,8.75
2023-10-26T21:09:34.434Z,8.73
2023-10-26T21:12:23.163Z,8.69
2023-10-26T21:15:10.357Z,8.73
2023-10-26T21:17:57.095Z,8.69
2023-10-26T21:20:44.208Z,8.65
2023-10-26T21:23:30.916Z,8.63
2023-10-26T21:26:17.407Z,8.65
2023-10-26T21:29:03.704Z,8.66
2023-10-26T21:31:50.574Z,8.68
2023-10-26T21:34:37.132Z,8.68
2023-10-26T21:37:23.473Z,8.65
2023-10-26T21:40:12.589Z,8.61
2023-10-26T21:43:00.164Z,8.59
2023-10-26T21:45:46.628Z,8.60
2023-10-26T21:48:34.235Z,8.58
2023-10-26T21:51:20.610Z,8.58
2023-10-26T21:54:07.071Z,8.56
2023-10-26T21:56:53.777Z,8.56
2023-10-26T21:59:40.418Z,8.59
2023-10-26T22:02:26.910Z,8.58
2023-10-26T22:05:15.016Z,8.59
2023-10-26T22:08:01.845Z,8.60
2023-10-26T22:10:49.142Z,8.63
2023-10-26T22:13:35.895Z,8.66
2023-10-26T22:16:22.605Z,8.72
2023-10-26T22:19:09.598Z,8.75
2023-10-26T22:21:56.180Z,8.74
2023-10-26T22:24:42.921Z,8.74
2023-10-26T22:27:30.609Z,8.72
2023-10-26T22:30:17.180Z,8.68
2023-10-26T22:33:03.962Z,8.70
2023-10-26T22:35:50.493Z,8.69
2023-10-26T22:38:37.495Z,8.75
2023-10-26T22:41:23.831Z,8.73
2023-10-26T22:44:11.257Z,8.72
2023-10-26T22:46:57.657Z,8.76
2023-10-26T22:49:44.531Z,8.77
2023-10-26T22:52:31.339Z,8.75
2023-10-26T22:55:17.830Z,8.66
2023-10-26T22:58:04.541Z,8.69
2023-10-26T23:00:51.273Z,8.70
2023-10-26T23:03:37.730Z,8.71
2023-10-26T23:06:24.431Z,8.77
2023-10-26T23:09:14.669Z,8.80
2023-10-26T23:12:01.679Z,8.81
2023-10-26T23:14:47.872Z,8.83
2023-10-26T23:17:34.485Z,8.82
2023-10-26T23:20:21.063Z,8.80
2023-10-26T23:23:07.229Z,8.75
2023-10-26T23:25:54.251Z,8.74
2023-10-26T23:28:41.232Z,8.71
2023-10-26T23:31:27.756Z,8.70
2023-10-26T23:34:14.506Z,8.69
2023-10-26T23:37:01.446Z,8.69
2023-10-26T23:39:48.572Z,8.69
2023-10-26T23:42:35.088Z,8.69
2023-10-26T23:45:22.055Z,8.67
2023-10-26T23:48:08.532Z,8.66
2023-10-26T23:50:55.429Z,8.64
2023-10-26T23:53:42.452Z,8.62
2023-10-26T23:56:28.957Z,8.59
2023-10-26T23:59:16.220Z,8.52
